Time,TemperatureF,DewpointF,PressureIn,WindDirection,WindDirectionDegrees,WindSpeedMPH,WindSpeedGustMPH,Humidity,HourlyPrecipIn,Conditions,Clouds,dailyrainin,SoftwareType,DateUTC
2013-06-29 00:01:00,70.6,60.7,29.63,NNE,32,1.1,1.1,71,0.00,CLR,,0.00,WeatherDisplay:10.37,2013-06-29 04:01:00,
2013-06-29 00:02:00,70.6,60.7,29.63,NNE,32,1.1,1.1,71,0.00,CLR,,0.00,WeatherDisplay:10.37,2013-06-29 04:02:00,
2013-06-29 00:03:00,70.6,60.7,29.63,NNE,32,0.0,0.0,71,0.00,CLR,,0.00,WeatherDisplay:10.37,2013-06-29 04:03:00,
2013-06-29 00:06:00,70.6,60.7,29.63,NNE,32,0.0,0.0,71,0.00,CLR,,0.00,WeatherDisplay:10.37,2013-06-29 04:06:00,
2013-06-29 00:11:00,70.5,60.6,29.63,NNE,32,0.0,0.0,71,0.00,CLR,,0.00,WeatherDisplay:10.37,2013-06-29 04:11:00,
2013-06-29 00:16:00,70.4,60.5,29.63,NNE,32,2.0,2.0,71,0.00,CLR,,0.00,WeatherDisplay:10.37,2013-06-29 04:16:00,
2013-06-29 00:21:00,70.2,60.4,29.63,NNE,32,0.0,0.0,71,0.00,CLR,,0.00,WeatherDisplay:10.37,2013-06-29 04:21:00,
2013-06-29 00:26:00,70.1,60.3,29.63,NNE,32,1.0,1.0,71,0.00,CLR,,0.00,WeatherDisplay:10.37,2013-06-29 04:26:00,
2013-06-29 00:31:00,70.1,60.3,29.63,NNE,32,0.0,0.0,71,0.00,CLR,,0.00,WeatherDisplay:10.37,2013-06-29 04:31:00,
2013-06-29 00:36:00,69.9,60.1,29.63,NNE,32,0.0,0.0,71,0.00,CLR,,0.00,WeatherDisplay:10.37,2013-06-29 04:36:00,
2013-06-29 00:41:00,69.7,60.3,29.63,NNE,32,1.0,0.0,72,0.00,CLR,,0.00,WeatherDisplay:10.37,2013-06-29 04:41:00,
2013-06-29 00:46:00,69.6,60.2,29.63,NNE,32,0.0,0.0,72,0.00,CLR,,0.00,WeatherDisplay:10.37,2013-06-29 04:46:00,
2013-06-29 00:52:00,69.6,60.2,29.63,NNE,32,0.0,0.0,72,0.00,CLR,,0.00,WeatherDisplay:10.37,2013-06-29 04:52:00,
2013-06-29 00:57:00,69.3,59.9,29.63,NNE,32,0.0,0.0,72,0.00,CLR,,0.00,WeatherDisplay:10.37,2013-06-29 04:57:00,
2013-06-29 01:02:00,69.0,60.4,29.63,NNE,32,1.1,1.1,74,0.00,CLR,,0.00,WeatherDisplay:10.37,2013-06-29 05:02:00,
2013-06-29 01:07:00,68.6,60.4,29.62,NNE,32,0.0,0.0,75,0.00,CLR,,0.00,WeatherDisplay:10.37,2013-06-29 05:07:00,
2013-06-29 01:12:00,68.5,60.3,29.62,NNE,32,0.0,0.0,75,0.00,CLR,,0.00,WeatherDisplay:10.37,2013-06-29 05:12:00,
2013-06-29 01:17:00,68.5,60.3,29.62,NNE,32,0.0,0.0,75,0.00,CLR,,0.00,WeatherDisplay:10.37,2013-06-29 05:17:00,
2013-06-29 01:22:00,68.4,60.2,29.62,NNE,32,0.0,0.0,75,0.00,CLR,,0.00,WeatherDisplay:10.37,2013-06-29 05:22:00,
2013-06-29 01:27:00,68.4,60.2,29.62,NNE,32,0.0,0.0,75,0.00,CLR,,0.00,WeatherDisplay:10.37,2013-06-29 05:27:00,
2013-06-29 01:32:00,68.2,60.3,29.62,NNE,32,0.0,0.0,76,0.00,CLR,,0.00,WeatherDisplay:10.37,2013-06-29 05:32:00,
2013-06-29 01:37:00,67.9,60.1,29.61,NNE,32,0.0,0.0,76,0.00,CLR,,0.00,WeatherDisplay:10.37,2013-06-29 05:37:00,
2013-06-29 01:42:00,67.8,60.3,29.61,NNE,32,0.0,0.0,77,0.00,CLR,,0.00,WeatherDisplay:10.37,2013-06-29 05:42:00,
2013-06-29 01:47:00,67.7,60.2,29.61,NNE,32,0.0,0.0,77,0.00,CLR,,0.00,WeatherDisplay:10.37,2013-06-29 05:47:00,
2013-06-29 01:52:00,67.5,60.4,29.61,NNE,32,0.0,0.0,78,0.00,CLR,,0.00,WeatherDisplay:10.37,2013-06-29 05:52:00,
2013-06-29 01:57:00,67.4,60.3,29.61,NNE,32,1.1,1.1,78,0.00,CLR,,0.00,WeatherDisplay:10.37,2013-06-29 05:57:00,
2013-06-29 02:02:00,67.3,60.6,29.61,NNE,32,0.0,0.0,79,0.00,CLR,,0.00,WeatherDisplay:10.37,2013-06-29 06:02:00,
2013-06-29 02:07:00,67.4,60.7,29.61,NNE,32,2.3,2.3,79,0.00,CLR,,0.00,WeatherDisplay:10.37,2013-06-29 06:07:00,
2013-06-29 02:12:00,67.4,60.7,29.61,NNE,32,0.0,0.0,79,0.00,CLR,,0.00,WeatherDisplay:10.37,2013-06-29 06:12:00,
2013-06-29 02:17:00,67.5,60.8,29.61,NNE,32,2.3,2.3,79,0.00,CLR,,0.00,WeatherDisplay:10.37,2013-06-29 06:17:00,
2013-06-29 02:22:00,67.6,60.9,29.61,NNE,32,2.3,2.3,79,0.00,CLR,,0.00,WeatherDisplay:10.37,2013-06-29 06:22:00,
2013-06-29 02:27:00,67.6,60.9,29.61,NNE,32,0.0,0.0,79,0.00,CLR,,0.00,WeatherDisplay:10.37,2013-06-29 06:27:00,
2013-06-29 02:32:00,67.5,60.8,29.61,NNE,32,1.1,1.1,79,0.00,CLR,,0.00,WeatherDisplay:10.37,2013-06-29 06:32:00,
2013-06-29 02:37:00,67.4,60.7,29.61,NNE,31,4.0,4.0,79,0.00,CLR,,0.00,WeatherDisplay:10.37,2013-06-29 06:37:00,
2013-06-29 02:42:00,67.2,60.5,29.61,NNE,31,1.0,1.0,79,0.00,CLR,,0.00,WeatherDisplay:10.37,2013-06-29 06:42:00,
2013-06-29 02:47:00,67.1,60.7,29.61,NNE,31,0.0,0.0,80,0.00,CLR,,0.00,WeatherDisplay:10.37,2013-06-29 06:47:00,
2013-06-29 02:52:00,66.8,60.4,29.60,NNE,31,2.0,2.0,80,0.00,CLR,,0.00,WeatherDisplay:10.37,2013-06-29 06:52:00,
2013-06-29 02:57:00,66.8,60.4,29.60,NNE,30,3.5,3.5,80,0.00,CLR,,0.00,WeatherDisplay:10.37,2013-06-29 06:57:00,
2013-06-29 03:02:00,66.8,60.4,29.60,NNE,29,2.3,2.3,80,0.00,CLR,,0.00,WeatherDisplay:10.37,2013-06-29 07:02:00,
2013-06-29 03:07:00,66.7,60.3,29.60,North,2,3.5,3.5,80,0.00,CLR,,0.00,WeatherDisplay:10.37,2013-06-29 07:07:00,
2013-06-29 03:12:00,66.6,60.2,29.60,North,2,1.1,0.0,80,0.00,CLR,,0.00,WeatherDisplay:10.37,2013-06-29 07:12:00,
2013-06-29 03:17:00,66.4,60.4,29.60,North,2,2.3,2.3,81,0.00,CLR,,0.00,WeatherDisplay:10.37,2013-06-29 07:17:00,
2013-06-29 03:22:00,66.3,60.3,29.60,North,2,2.3,0.0,81,0.00,CLR,,0.00,WeatherDisplay:10.37,2013-06-29 07:22:00,
2013-06-29 03:27:00,66.3,60.3,29.59,North,2,2.3,2.3,81,0.00,CLR,,0.00,WeatherDisplay:10.37,2013-06-29 07:27:00,
2013-06-29 03:32:00,66.2,60.2,29.59,North,2,2.3,2.3,81,0.00,CLR,,0.00,WeatherDisplay:10.37,2013-06-29 07:32:00,
2013-06-29 03:37:00,66.1,60.1,29.59,North,2,2.3,2.3,81,0.00,CLR,,0.00,WeatherDisplay:10.37,2013-06-29 07:37:00,
2013-06-29 03:42:00,66.0,60.0,29.59,North,2,3.5,3.5,81,0.00,CLR,,0.00,WeatherDisplay:10.37,2013-06-29 07:42:00,
2013-06-29 03:47:00,66.0,60.0,29.59,North,2,0.0,0.0,81,0.00,CLR,,0.00,WeatherDisplay:10.37,2013-06-29 07:47:00,
2013-06-29 03:52:00,65.9,60.2,29.59,North,2,0.0,0.0,82,0.00,CLR,,0.00,WeatherDisplay:10.37,2013-06-29 07:52:00,
2013-06-29 03:57:00,65.8,60.2,29.60,North,2,0.0,0.0,82,0.00,CLR,,0.00,WeatherDisplay:10.37,2013-06-29 07:57:00,
2013-06-29 04:02:00,65.7,60.1,29.59,North,2,0.0,0.0,82,0.00,CLR,,0.00,WeatherDisplay:10.37,2013-06-29 08:02:00,
2013-06-29 04:07:00,65.5,59.9,29.59,North,2,0.0,0.0,82,0.00,CLR,,0.00,WeatherDisplay:10.37,2013-06-29 08:07:00,
2013-06-29 04:12:00,65.4,59.8,29.59,North,2,0.0,0.0,82,0.00,CLR,,0.00,WeatherDisplay:10.37,2013-06-29 08:12:00,
2013-06-29 04:17:00,65.3,60.0,29.59,North,2,1.1,0.0,83,0.00,CLR,,0.00,WeatherDisplay:10.37,2013-06-29 08:17:00,
2013-06-29 04:22:00,65.2,59.9,29.59,North,2,0.0,0.0,83,0.00,CLR,,0.00,WeatherDisplay:10.37,2013-06-29 08:22:00,
2013-06-29 04:27:00,65.1,59.8,29.60,North,2,2.0,2.0,83,0.00,CLR,,0.00,WeatherDisplay:10.37,2013-06-29 08:27:00,
2013-06-29 04:32:00,65.1,59.8,29.60,North,2,1.1,1.1,83,0.00,CLR,,0.00,WeatherDisplay:10.37,2013-06-29 08:32:00,
2013-06-29 04:37:00,65.0,59.7,29.60,North,357,3.0,3.0,83,0.00,CLR,,0.00,WeatherDisplay:10.37,2013-06-29 08:37:00,
2013-06-29 04:42:00,65.0,59.7,29.60,North,358,3.5,3.5,83,0.00,CLR,,0.00,WeatherDisplay:10.37,2013-06-29 08:42:00,
2013-06-29 04:47:00,65.1,59.8,29.60,North,358,3.5,3.5,83,0.00,CLR,,0.00,WeatherDisplay:10.37,2013-06-29 08:47:00,
2013-06-29 04:52:00,65.2,59.9,29.60,North,358,3.0,3.0,83,0.00,CLR,,0.00,WeatherDisplay:10.37,2013-06-29 08:52:00,
2013-06-29 04:57:00,65.1,59.8,29.60,North,358,3.5,3.5,83,0.00,CLR,,0.00,WeatherDisplay:10.37,2013-06-29 08:57:00,
2013-06-29 05:02:00,65.0,59.7,29.61,North,358,1.1,0.0,83,0.00,CLR,,0.00,WeatherDisplay:10.37,2013-06-29 09:02:00,
2013-06-29 05:07:00,65.0,59.7,29.61,North,357,1.0,0.0,83,0.00,CLR,,0.00,WeatherDisplay:10.37,2013-06-29 09:07:00,
2013-06-29 05:12:00,64.9,59.9,29.61,North,357,1.1,0.0,84,0.00,CLR,,0.00,WeatherDisplay:10.37,2013-06-29 09:12:00,
2013-06-29 05:17:00,64.9,59.9,29.61,North,358,1.1,1.1,84,0.00,CLR,,0.00,WeatherDisplay:10.37,2013-06-29 09:17:00,
2013-06-29 05:22:00,64.9,59.9,29.61,North,358,1.1,1.1,84,0.00,CLR,,0.00,WeatherDisplay:10.37,2013-06-29 09:22:00,
2013-06-29 05:27:00,64.8,59.9,29.61,North,357,1.1,1.1,84,0.00,CLR,,0.00,WeatherDisplay:10.37,2013-06-29 09:27:00,
2013-06-29 05:32:00,64.8,59.9,29.61,North,358,0.0,0.0,84,0.00,CLR,,0.00,WeatherDisplay:10.37,2013-06-29 09:32:00,
2013-06-29 05:37:00,64.8,59.9,29.61,North,358,2.3,2.3,84,0.00,CLR,,0.00,WeatherDisplay:10.37,2013-06-29 09:37:00,
2013-06-29 05:42:00,64.9,59.9,29.61,North,358,0.0,0.0,84,0.00,CLR,,0.00,WeatherDisplay:10.37,2013-06-29 09:42:00,
2013-06-29 05:47:00,64.9,59.9,29.62,North,357,0.0,0.0,84,0.00,CLR,,0.00,WeatherDisplay:10.37,2013-06-29 09:47:00,
2013-06-29 05:52:00,64.9,59.9,29.61,North,358,0.0,0.0,84,0.00,CLR,,0.00,WeatherDisplay:10.37,2013-06-29 09:52:00,
2013-06-29 05:57:00,65.0,60.0,29.62,North,357,2.3,2.3,84,0.00,CLR,,0.00,WeatherDisplay:10.37,2013-06-29 09:57:00,
2013-06-29 06:02:00,65.0,60.0,29.62,North,358,0.0,0.0,84,0.00,OVC,,0.00,WeatherDisplay:10.37,2013-06-29 10:02:00,
2013-06-29 06:07:00,65.0,60.0,29.62,North,358,0.0,0.0,84,0.00,OVC,,0.00,WeatherDisplay:10.37,2013-06-29 10:07:00,
2013-06-29 06:12:00,65.0,60.0,29.62,North,358,1.1,0.0,84,0.00,OVC,,0.00,WeatherDisplay:10.37,2013-06-29 10:12:00,
2013-06-29 06:17:00,65.1,60.1,29.62,North,357,0.0,0.0,84,0.00,OVC,,0.00,WeatherDisplay:10.37,2013-06-29 10:17:00,
2013-06-29 06:22:00,65.1,60.1,29.62,North,358,3.5,3.5,84,0.00,OVC,,0.00,WeatherDisplay:10.37,2013-06-29 10:22:00,
2013-06-29 06:27:00,65.2,59.9,29.62,North,358,0.0,0.0,83,0.00,OVC,,0.00,WeatherDisplay:10.37,2013-06-29 10:27:00,
2013-06-29 06:32:00,65.2,59.9,29.62,North,358,2.0,2.0,83,0.00,OVC,,0.00,WeatherDisplay:10.37,2013-06-29 10:32:00,
2013-06-29 06:37:00,65.3,60.0,29.62,North,358,0.0,0.0,83,0.00,OVC,,0.00,WeatherDisplay:10.37,2013-06-29 10:37:00,
2013-06-29 06:42:00,65.4,60.1,29.62,North,358,0.0,0.0,83,0.00,OVC,,0.00,WeatherDisplay:10.37,2013-06-29 10:42:00,
2013-06-29 06:47:00,65.4,60.1,29.62,North,357,0.0,0.0,83,0.00,OVC,,0.00,WeatherDisplay:10.37,2013-06-29 10:47:00,
2013-06-29 06:52:00,65.5,60.2,29.62,North,358,1.1,1.1,83,0.00,OVC,,0.00,WeatherDisplay:10.37,2013-06-29 10:52:00,
2013-06-29 06:57:00,65.6,60.3,29.62,North,357,2.3,2.3,83,0.00,OVC,,0.00,WeatherDisplay:10.37,2013-06-29 10:57:00,
2013-06-29 07:02:00,65.7,60.4,29.62,North,357,3.5,3.5,83,0.00,OVC,,0.00,WeatherDisplay:10.37,2013-06-29 11:02:00,
2013-06-29 07:07:00,65.7,60.4,29.62,North,357,3.5,3.5,83,0.00,OVC,,0.00,WeatherDisplay:10.37,2013-06-29 11:07:00,
2013-06-29 07:12:00,65.7,60.1,29.63,North,357,1.1,1.1,82,0.00,OVC,,0.00,WeatherDisplay:10.37,2013-06-29 11:12:00,
2013-06-29 07:17:00,65.8,60.2,29.63,North,357,3.5,3.5,82,0.00,OVC,,0.00,WeatherDisplay:10.37,2013-06-29 11:17:00,
2013-06-29 07:22:00,65.9,60.2,29.63,North,357,1.1,1.1,82,0.00,OVC,,0.00,WeatherDisplay:10.37,2013-06-29 11:22:00,
2013-06-29 07:27:00,66.0,60.3,29.63,North,357,3.5,3.5,82,0.00,OVC,,0.00,WeatherDisplay:10.37,2013-06-29 11:27:00,
2013-06-29 07:32:00,66.1,60.4,29.63,North,357,0.0,0.0,82,0.00,OVC,,0.00,WeatherDisplay:10.37,2013-06-29 11:32:00,
2013-06-29 07:37:00,66.1,60.4,29.63,North,357,1.1,1.1,82,0.00,OVC,,0.00,WeatherDisplay:10.37,2013-06-29 11:37:00,
2013-06-29 07:42:00,66.1,60.4,29.63,North,355,4.6,4.6,82,0.00,OVC,,0.00,WeatherDisplay:10.37,2013-06-29 11:42:00,
2013-06-29 07:47:00,66.1,60.4,29.63,North,355,1.1,1.1,82,0.00,OVC,,0.00,WeatherDisplay:10.37,2013-06-29 11:47:00,
2013-06-29 07:52:00,66.1,60.4,29.63,NNW,348,4.0,4.0,82,0.00,OVC,,0.00,WeatherDisplay:10.37,2013-06-29 11:52:00,
2013-06-29 07:57:00,66.4,60.7,29.64,West,274,6.0,6.0,82,0.00,OVC,,0.00,WeatherDisplay:10.37,2013-06-29 11:57:00,
2013-06-29 08:02:00,66.5,60.5,29.64,West,274,4.0,4.0,81,0.00,OVC,,0.00,WeatherDisplay:10.37,2013-06-29 12:02:00,
2013-06-29 08:07:00,66.6,60.6,29.63,West,274,3.0,3.0,81,0.00,OVC,,0.00,WeatherDisplay:10.37,2013-06-29 12:07:00,
2013-06-29 08:12:00,66.8,60.8,29.64,West,274,1.1,1.1,81,0.00,OVC,,0.00,WeatherDisplay:10.37,2013-06-29 12:12:00,
2013-06-29 08:17:00,67.1,61.1,29.63,West,273,6.0,6.0,81,0.00,OVC,,0.00,WeatherDisplay:10.37,2013-06-29 12:17:00,
2013-06-29 08:22:00,67.7,61.0,29.63,West,272,3.5,3.5,79,0.00,OVC,,0.00,WeatherDisplay:10.37,2013-06-29 12:22:00,
2013-06-29 08:27:00,68.2,61.4,29.63,West,272,5.0,5.0,79,0.00,OVC,,0.00,WeatherDisplay:10.37,2013-06-29 12:27:00,
2013-06-29 08:32:00,68.6,61.5,29.63,West,270,5.0,5.0,78,0.00,OVC,,0.00,WeatherDisplay:10.37,2013-06-29 12:32:00,
2013-06-29 08:37:00,68.8,61.7,29.63,West,272,4.0,4.0,78,0.00,OVC,,0.00,WeatherDisplay:10.37,2013-06-29 12:37:00,
2013-06-29 08:42:00,69.1,61.9,29.63,West,274,3.5,3.5,78,0.00,OVC,,0.00,WeatherDisplay:10.37,2013-06-29 12:42:00,
2013-06-29 08:47:00,69.3,61.4,29.63,West,272,5.8,5.8,76,0.00,OVC,,0.00,WeatherDisplay:10.37,2013-06-29 12:47:00,
2013-06-29 08:52:00,69.6,62.1,29.63,West,259,2.0,2.0,77,0.00,OVC,,0.00,WeatherDisplay:10.37,2013-06-29 12:52:00,
2013-06-29 08:57:00,69.9,62.0,29.63,WSW,257,4.6,4.6,76,0.00,OVC,,0.00,WeatherDisplay:10.37,2013-06-29 12:57:00,
2013-06-29 09:02:00,70.3,62.4,29.63,WSW,258,3.5,3.5,76,0.00,CLR,,0.00,WeatherDisplay:10.37,2013-06-29 13:02:00,
2013-06-29 09:07:00,70.8,62.5,29.63,West,271,5.0,5.0,75,0.00,CLR,,0.00,WeatherDisplay:10.37,2013-06-29 13:07:00,
2013-06-29 09:13:00,71.0,62.3,29.63,West,267,6.0,6.0,74,0.00,CLR,,0.00,WeatherDisplay:10.37,2013-06-29 13:13:00,
2013-06-29 09:17:00,71.3,62.2,29.63,West,259,2.3,2.3,73,0.00,CLR,,0.00,WeatherDisplay:10.37,2013-06-29 13:17:00,
2013-06-29 09:22:00,71.6,62.1,29.63,WSW,255,8.1,8.1,72,0.00,CLR,,0.00,WeatherDisplay:10.37,2013-06-29 13:22:00,
2013-06-29 09:27:00,71.8,62.3,29.63,WSW,253,6.9,6.9,72,0.00,CLR,,0.00,WeatherDisplay:10.37,2013-06-29 13:27:00,
2013-06-29 09:32:00,72.0,62.5,29.63,WSW,252,9.2,9.2,72,0.00,CLR,,0.00,WeatherDisplay:10.37,2013-06-29 13:32:00,
2013-06-29 09:37:00,72.3,62.8,29.63,WSW,257,2.3,2.3,72,0.00,CLR,,0.00,WeatherDisplay:10.37,2013-06-29 13:37:00,
2013-06-29 09:43:00,72.6,62.3,29.63,WSW,258,3.5,3.5,70,0.00,CLR,,0.00,WeatherDisplay:10.37,2013-06-29 13:43:00,
2013-06-29 09:48:00,72.8,62.4,29.63,West,260,3.5,3.5,70,0.00,CLR,,0.00,WeatherDisplay:10.37,2013-06-29 13:48:00,
2013-06-29 09:53:00,73.0,62.2,29.63,West,259,4.0,4.0,69,0.00,CLR,,0.00,WeatherDisplay:10.37,2013-06-29 13:53:00,
2013-06-29 09:58:00,73.3,62.5,29.63,WSW,249,6.0,6.0,69,0.00,CLR,,0.00,WeatherDisplay:10.37,2013-06-29 13:58:00,
2013-06-29 10:03:00,73.4,62.6,29.63,WSW,249,6.0,6.0,69,0.00,CLR,,0.00,WeatherDisplay:10.37,2013-06-29 14:03:00,
2013-06-29 10:08:00,73.8,63.0,29.63,WSW,253,6.0,6.0,69,0.00,CLR,,0.00,WeatherDisplay:10.37,2013-06-29 14:08:00,
2013-06-29 10:13:00,73.9,62.7,29.63,WSW,255,5.8,5.8,68,0.00,CLR,,0.00,WeatherDisplay:10.37,2013-06-29 14:13:00,
2013-06-29 10:18:00,73.9,63.1,29.63,WSW,255,6.0,6.0,69,0.00,CLR,,0.00,WeatherDisplay:10.37,2013-06-29 14:18:00,
2013-06-29 10:23:00,74.1,63.3,29.63,WSW,254,4.0,4.0,69,0.00,CLR,,0.00,WeatherDisplay:10.37,2013-06-29 14:23:00,
2013-06-29 10:28:00,74.5,63.2,29.63,WSW,256,4.0,4.0,68,0.00,CLR,,0.00,WeatherDisplay:10.37,2013-06-29 14:28:00,
2013-06-29 10:33:00,74.8,63.5,29.63,WSW,258,1.0,1.0,68,0.00,CLR,,0.00,WeatherDisplay:10.37,2013-06-29 14:33:00,
2013-06-29 10:38:00,74.9,62.8,29.63,WSW,243,7.0,7.0,66,0.00,CLR,,0.00,WeatherDisplay:10.37,2013-06-29 14:38:00,
2013-06-29 10:43:00,74.8,62.2,29.63,WSW,257,6.0,6.0,65,0.00,CLR,,0.00,WeatherDisplay:10.37,2013-06-29 14:43:00,
2013-06-29 10:48:00,75.0,62.9,29.62,West,260,4.0,4.0,66,0.00,CLR,,0.00,WeatherDisplay:10.37,2013-06-29 14:48:00,
2013-06-29 10:53:00,75.5,63.3,29.62,West,260,2.3,2.3,66,0.00,CLR,,0.00,WeatherDisplay:10.37,2013-06-29 14:53:00,
2013-06-29 10:58:00,75.8,63.2,29.62,WSW,257,7.0,7.0,65,0.00,CLR,,0.00,WeatherDisplay:10.37,2013-06-29 14:58:00,
2013-06-29 11:03:00,75.5,62.5,29.63,WSW,249,10.4,10.4,64,0.00,CLR,,0.00,WeatherDisplay:10.37,2013-06-29 15:03:00,
2013-06-29 11:08:00,75.6,62.6,29.63,WNW,302,8.1,8.1,64,0.00,CLR,,0.00,WeatherDisplay:10.37,2013-06-29 15:08:00,
2013-06-29 11:13:00,75.7,63.1,29.63,NW,306,3.5,3.5,65,0.00,CLR,,0.00,WeatherDisplay:10.37,2013-06-29 15:13:00,
2013-06-29 11:18:00,76.1,63.5,29.63,NW,305,3.5,3.5,65,0.00,CLR,,0.00,WeatherDisplay:10.37,2013-06-29 15:18:00,
2013-06-29 11:23:00,76.1,63.0,29.63,WSW,253,4.0,4.0,64,0.00,CLR,,0.00,WeatherDisplay:10.37,2013-06-29 15:23:00,
2013-06-29 11:28:00,76.7,63.2,29.63,WSW,243,8.0,8.0,63,0.00,CLR,,0.00,WeatherDisplay:10.37,2013-06-29 15:28:00,
2013-06-29 11:33:00,76.6,63.5,29.63,WSW,250,5.0,5.0,64,0.00,CLR,,0.00,WeatherDisplay:10.37,2013-06-29 15:33:00,
2013-06-29 11:38:00,76.7,63.6,29.63,West,272,5.0,5.0,64,0.00,CLR,,0.00,WeatherDisplay:10.37,2013-06-29 15:38:00,
2013-06-29 11:43:00,77.1,63.1,29.63,West,268,6.9,6.9,62,0.00,CLR,,0.00,WeatherDisplay:10.37,2013-06-29 15:43:00,
2013-06-29 11:48:00,76.8,63.7,29.63,West,268,2.3,2.3,64,0.00,CLR,,0.00,WeatherDisplay:10.37,2013-06-29 15:48:00,
2013-06-29 11:53:00,76.9,64.2,29.63,West,272,5.0,5.0,65,0.00,CLR,,0.00,WeatherDisplay:10.37,2013-06-29 15:53:00,
2013-06-29 11:58:00,77.0,63.4,29.63,West,272,4.6,4.6,63,0.00,CLR,,0.00,WeatherDisplay:10.37,2013-06-29 15:58:00,
2013-06-29 12:03:00,77.2,63.6,29.63,West,279,4.6,4.6,63,0.00,CLR,,0.00,WeatherDisplay:10.37,2013-06-29 16:03:00,
2013-06-29 12:08:00,77.2,63.2,29.63,SW,232,8.1,8.1,62,0.00,CLR,,0.00,WeatherDisplay:10.37,2013-06-29 16:08:00,
2013-06-29 12:13:00,76.4,63.3,29.62,WSW,240,5.0,5.0,64,0.00,CLR,,0.00,WeatherDisplay:10.37,2013-06-29 16:13:00,
2013-06-29 12:18:00,76.6,63.5,29.62,WSW,238,5.0,5.0,64,0.00,CLR,,0.00,WeatherDisplay:10.37,2013-06-29 16:18:00,
2013-06-29 12:23:00,76.7,64.0,29.62,WSW,243,8.1,8.1,65,0.00,CLR,,0.00,WeatherDisplay:10.37,2013-06-29 16:23:00,
2013-06-29 12:28:00,76.6,63.5,29.62,WSW,251,4.6,4.6,64,0.00,CLR,,0.00,WeatherDisplay:10.37,2013-06-29 16:28:00,
2013-06-29 12:33:00,76.9,63.8,29.62,West,261,5.0,5.0,64,0.00,CLR,,0.00,WeatherDisplay:10.37,2013-06-29 16:33:00,
2013-06-29 12:38:00,76.7,64.5,29.63,WSW,251,10.0,10.0,66,0.00,CLR,,0.00,WeatherDisplay:10.37,2013-06-29 16:38:00,
2013-06-29 12:43:00,77.2,63.6,29.63,West,264,7.0,7.0,63,0.00,CLR,,0.00,WeatherDisplay:10.37,2013-06-29 16:43:00,
2013-06-29 12:48:00,77.0,62.5,29.62,WSW,243,8.0,8.0,61,0.00,CLR,,0.00,WeatherDisplay:10.37,2013-06-29 16:48:00,
2013-06-29 12:53:00,77.6,64.0,29.62,WNW,297,7.0,7.0,63,0.00,CLR,,0.00,WeatherDisplay:10.37,2013-06-29 16:53:00,
2013-06-29 12:58:00,78.2,63.6,29.62,WSW,239,13.0,13.0,61,0.00,CLR,,0.00,WeatherDisplay:10.37,2013-06-29 16:58:00,
2013-06-29 13:03:00,78.3,63.7,29.62,WSW,244,11.5,11.5,61,0.00,BKN,,0.00,WeatherDisplay:10.37,2013-06-29 17:03:00,
2013-06-29 13:08:00,78.4,63.8,29.62,WSW,239,7.0,7.0,61,0.00,BKN,,0.00,WeatherDisplay:10.37,2013-06-29 17:08:00,
2013-06-29 13:13:00,77.9,62.4,29.62,WSW,239,10.4,10.4,59,0.00,BKN,,0.00,WeatherDisplay:10.37,2013-06-29 17:13:00,
2013-06-29 13:18:00,78.4,63.4,29.62,West,279,11.5,11.5,60,0.00,BKN,,0.00,WeatherDisplay:10.37,2013-06-29 17:18:00,
2013-06-29 13:23:00,78.2,63.6,29.62,WSW,257,5.0,5.0,61,0.00,BKN,,0.00,WeatherDisplay:10.37,2013-06-29 17:23:00,
2013-06-29 13:28:00,78.0,63.5,29.62,WSW,245,8.1,8.1,61,0.00,BKN,,0.00,WeatherDisplay:10.37,2013-06-29 17:28:00,
2013-06-29 13:33:00,77.6,63.5,29.61,WSW,245,5.8,5.8,62,0.00,BKN,,0.00,WeatherDisplay:10.37,2013-06-29 17:33:00,
2013-06-29 13:38:00,77.5,63.9,29.61,WSW,250,3.5,3.5,63,0.00,BKN,,0.00,WeatherDisplay:10.37,2013-06-29 17:38:00,
2013-06-29 13:43:00,78.2,65.0,29.61,WSW,250,5.0,5.0,64,0.00,BKN,,0.00,WeatherDisplay:10.37,2013-06-29 17:43:00,
2013-06-29 13:48:00,79.0,63.9,29.61,WSW,253,5.0,5.0,60,0.00,BKN,,0.00,WeatherDisplay:10.37,2013-06-29 17:48:00,
2013-06-29 13:53:00,78.7,63.2,29.61,WSW,243,9.2,9.2,59,0.00,BKN,,0.00,WeatherDisplay:10.37,2013-06-29 17:53:00,
2013-06-29 13:58:00,78.1,63.1,29.61,WSW,255,3.5,3.5,60,0.00,BKN,,0.00,WeatherDisplay:10.37,2013-06-29 17:58:00,
2013-06-29 14:03:00,78.7,63.2,29.61,WSW,250,8.1,8.1,59,0.00,BKN,,0.00,WeatherDisplay:10.37,2013-06-29 18:03:00,
2013-06-29 14:08:00,78.8,63.7,29.61,West,259,6.0,6.0,60,0.00,BKN,,0.00,WeatherDisplay:10.37,2013-06-29 18:08:00,
2013-06-29 14:13:00,78.6,64.0,29.60,West,259,3.5,3.5,61,0.00,BKN,,0.00,WeatherDisplay:10.37,2013-06-29 18:13:00,
2013-06-29 14:18:00,78.8,64.2,29.60,NNW,328,3.5,3.5,61,0.00,BKN,,0.00,WeatherDisplay:10.37,2013-06-29 18:18:00,
2013-06-29 14:23:00,80.1,64.5,29.61,West,280,6.0,6.0,59,0.00,BKN,,0.00,WeatherDisplay:10.37,2013-06-29 18:23:00,
2013-06-29 14:28:00,80.4,63.3,29.60,WSW,257,8.1,8.1,56,0.00,BKN,,0.00,WeatherDisplay:10.37,2013-06-29 18:28:00,
2013-06-29 14:33:00,80.8,63.6,29.61,WSW,247,11.5,11.5,56,0.00,BKN,,0.00,WeatherDisplay:10.37,2013-06-29 18:33:00,
2013-06-29 14:38:00,80.2,63.1,29.60,SW,216,10.0,10.0,56,0.00,BKN,,0.00,WeatherDisplay:10.37,2013-06-29 18:38:00,
2013-06-29 14:43:00,79.9,62.8,29.60,WSW,241,11.5,11.5,56,0.00,BKN,,0.00,WeatherDisplay:10.37,2013-06-29 18:43:00,
2013-06-29 14:48:00,79.8,62.7,29.60,WNW,284,13.0,13.0,56,0.00,BKN,,0.00,WeatherDisplay:10.37,2013-06-29 18:48:00,
2013-06-29 14:53:00,79.7,62.6,29.60,WSW,253,9.2,9.2,56,0.00,BKN,,0.00,WeatherDisplay:10.37,2013-06-29 18:53:00,
2013-06-29 14:58:00,79.4,63.3,29.60,NW,316,11.5,11.5,58,0.00,BKN,,0.00,WeatherDisplay:10.37,2013-06-29 18:58:00,
2013-06-29 15:03:00,79.6,63.0,29.60,WSW,247,5.8,5.8,57,0.00,BKN,,0.00,WeatherDisplay:10.37,2013-06-29 19:03:00,
2013-06-29 15:08:00,80.0,64.9,29.60,West,271,1.1,1.1,60,0.00,BKN,,0.00,WeatherDisplay:10.37,2013-06-29 19:08:00,
2013-06-29 15:13:00,80.4,63.8,29.60,WSW,251,9.0,9.0,57,0.00,BKN,,0.00,WeatherDisplay:10.37,2013-06-29 19:13:00,
2013-06-29 15:18:00,79.6,63.0,29.60,WSW,257,6.0,6.0,57,0.00,BKN,,0.00,WeatherDisplay:10.37,2013-06-29 19:18:00,
2013-06-29 15:23:00,79.5,63.4,29.60,WSW,255,4.0,4.0,58,0.00,BKN,,0.00,WeatherDisplay:10.37,2013-06-29 19:23:00,
2013-06-29 15:28:00,79.7,63.6,29.60,SW,234,10.4,10.4,58,0.00,BKN,,0.00,WeatherDisplay:10.37,2013-06-29 19:28:00,
2013-06-29 15:33:00,79.6,63.5,29.60,WSW,250,9.2,9.2,58,0.00,BKN,,0.00,WeatherDisplay:10.37,2013-06-29 19:33:00,
2013-06-29 15:38:00,79.4,63.8,29.60,WSW,252,9.2,9.2,59,0.00,BKN,,0.00,WeatherDisplay:10.37,2013-06-29 19:38:00,
2013-06-29 15:43:00,79.3,64.2,29.60,West,270,6.0,6.0,60,0.00,BKN,,0.00,WeatherDisplay:10.37,2013-06-29 19:43:00,
2013-06-29 15:48:00,79.4,63.8,29.61,WSW,249,10.4,10.4,59,0.00,BKN,,0.00,WeatherDisplay:10.37,2013-06-29 19:48:00,
2013-06-29 15:53:00,79.7,64.6,29.60,NW,316,7.0,7.0,60,0.00,BKN,,0.00,WeatherDisplay:10.37,2013-06-29 19:53:00,
2013-06-29 15:58:00,79.8,64.2,29.60,SW,234,11.5,11.5,59,0.00,BKN,,0.00,WeatherDisplay:10.37,2013-06-29 19:58:00,
2013-06-29 16:03:00,80.1,64.0,29.60,WSW,249,11.0,11.0,58,0.00,BKN,,0.00,WeatherDisplay:10.37,2013-06-29 20:03:00,
2013-06-29 16:08:00,79.7,64.1,29.60,WNW,291,11.5,11.5,59,0.00,BKN,,0.00,WeatherDisplay:10.37,2013-06-29 20:08:00,
2013-06-29 16:13:00,80.1,65.0,29.60,West,261,7.0,7.0,60,0.00,BKN,,0.00,WeatherDisplay:10.37,2013-06-29 20:13:00,
2013-06-29 16:18:00,80.3,64.2,29.60,WNW,297,4.6,4.6,58,0.00,BKN,,0.00,WeatherDisplay:10.37,2013-06-29 20:18:00,
2013-06-29 16:23:00,80.0,64.4,29.60,WSW,255,11.0,11.0,59,0.00,BKN,,0.00,WeatherDisplay:10.37,2013-06-29 20:23:00,
2013-06-29 16:28:00,79.2,64.1,29.60,West,270,13.0,13.0,60,0.00,BKN,,0.00,WeatherDisplay:10.37,2013-06-29 20:28:00,
2013-06-29 16:33:00,79.1,64.0,29.60,WSW,241,11.5,11.5,60,0.00,BKN,,0.00,WeatherDisplay:10.37,2013-06-29 20:33:00,
2013-06-29 16:38:00,79.8,65.2,29.60,WSW,255,9.0,9.0,61,0.00,BKN,,0.00,WeatherDisplay:10.37,2013-06-29 20:38:00,
2013-06-29 16:43:00,80.3,65.1,29.60,West,262,7.0,7.0,60,0.00,BKN,,0.00,WeatherDisplay:10.37,2013-06-29 20:43:00,
2013-06-29 16:48:00,80.4,64.8,29.60,NW,314,6.0,6.0,59,0.00,BKN,,0.00,WeatherDisplay:10.37,2013-06-29 20:48:00,
2013-06-29 16:53:00,79.8,64.2,29.60,WSW,242,7.0,7.0,59,0.00,BKN,,0.00,WeatherDisplay:10.37,2013-06-29 20:53:00,
2013-06-29 16:58:00,79.9,63.8,29.60,WSW,257,11.5,11.5,58,0.00,BKN,,0.00,WeatherDisplay:10.37,2013-06-29 20:58:00,
2013-06-29 17:03:00,80.2,64.1,29.60,WSW,247,9.0,9.0,58,0.00,BKN,,0.00,WeatherDisplay:10.37,2013-06-29 21:03:00,
2013-06-29 17:08:00,80.4,64.8,29.60,SW,234,8.0,8.0,59,0.00,BKN,,0.00,WeatherDisplay:10.37,2013-06-29 21:08:00,
2013-06-29 17:13:00,80.7,63.5,29.60,WSW,251,8.1,8.1,56,0.00,BKN,,0.00,WeatherDisplay:10.37,2013-06-29 21:13:00,
2013-06-29 17:18:00,80.3,63.7,29.60,WSW,252,11.0,11.0,57,0.00,BKN,,0.00,WeatherDisplay:10.37,2013-06-29 21:18:00,
2013-06-29 17:23:00,79.9,64.3,29.60,WSW,255,5.0,5.0,59,0.00,BKN,,0.00,WeatherDisplay:10.37,2013-06-29 21:23:00,
2013-06-29 17:28:00,80.2,63.1,29.60,WSW,246,11.5,11.5,56,0.00,BKN,,0.00,WeatherDisplay:10.37,2013-06-29 21:28:00,
2013-06-29 17:33:00,79.7,62.6,29.60,WSW,249,9.2,9.2,56,0.00,BKN,,0.00,WeatherDisplay:10.37,2013-06-29 21:33:00,
2013-06-29 17:38:00,79.2,63.1,29.60,SW,233,7.0,7.0,58,0.00,BKN,,0.00,WeatherDisplay:10.37,2013-06-29 21:38:00,
2013-06-29 17:43:00,79.1,63.5,29.60,SW,234,5.0,5.0,59,0.00,BKN,,0.00,WeatherDisplay:10.37,2013-06-29 21:43:00,
2013-06-29 17:48:00,78.7,63.6,29.60,WSW,247,8.1,8.1,60,0.00,BKN,,0.00,WeatherDisplay:10.37,2013-06-29 21:48:00,
2013-06-29 17:53:00,79.7,64.6,29.60,WSW,247,7.0,7.0,60,0.00,BKN,,0.00,WeatherDisplay:10.37,2013-06-29 21:53:00,
2013-06-29 17:58:00,79.8,63.7,29.59,WNW,299,8.1,8.1,58,0.00,BKN,,0.00,WeatherDisplay:10.37,2013-06-29 21:58:00,
2013-06-29 18:03:00,79.8,64.2,29.59,SW,222,8.0,8.0,59,0.00,BKN,,0.00,WeatherDisplay:10.37,2013-06-29 22:03:00,
2013-06-29 18:08:00,80.5,63.9,29.59,WSW,245,9.0,9.0,57,0.00,BKN,,0.00,WeatherDisplay:10.37,2013-06-29 22:08:00,
2013-06-29 18:13:00,80.9,63.2,29.59,WSW,258,10.4,10.4,55,0.00,BKN,,0.00,WeatherDisplay:10.37,2013-06-29 22:13:00,
2013-06-29 18:18:00,81.1,63.4,29.59,WSW,239,11.5,11.5,55,0.00,BKN,,0.00,WeatherDisplay:10.37,2013-06-29 22:18:00,
2013-06-29 18:23:00,80.6,62.9,29.59,WSW,239,9.0,9.0,55,0.00,BKN,,0.00,WeatherDisplay:10.37,2013-06-29 22:23:00,
2013-06-29 18:28:00,79.8,63.2,29.59,WSW,257,8.0,8.0,57,0.00,BKN,,0.00,WeatherDisplay:10.37,2013-06-29 22:28:00,
2013-06-29 18:33:00,79.0,63.0,29.59,WSW,254,7.0,7.0,58,0.00,BKN,,0.00,WeatherDisplay:10.37,2013-06-29 22:33:00,
2013-06-29 18:38:00,79.5,63.9,29.59,West,261,7.0,7.0,59,0.00,BKN,,0.00,WeatherDisplay:10.37,2013-06-29 22:38:00,
2013-06-29 18:43:00,80.3,64.7,29.59,West,270,7.0,7.0,59,0.00,BKN,,0.00,WeatherDisplay:10.37,2013-06-29 22:43:00,
2013-06-29 18:48:00,80.6,64.5,29.59,SW,228,7.0,7.0,58,0.00,BKN,,0.00,WeatherDisplay:10.37,2013-06-29 22:48:00,
2013-06-29 18:53:00,80.6,64.9,29.59,WSW,247,7.0,7.0,59,0.00,BKN,,0.00,WeatherDisplay:10.37,2013-06-29 22:53:00,
2013-06-29 18:58:00,80.5,64.9,29.59,NW,314,4.0,4.0,59,0.00,BKN,,0.00,WeatherDisplay:10.37,2013-06-29 22:58:00,
2013-06-29 19:03:00,80.2,64.6,29.60,West,280,3.5,3.5,59,0.00,BKN,,0.00,WeatherDisplay:10.37,2013-06-29 23:03:00,
2013-06-29 19:08:00,80.2,64.6,29.60,West,267,4.0,4.0,59,0.00,BKN,,0.00,WeatherDisplay:10.37,2013-06-29 23:08:00,
2013-06-29 19:13:00,80.0,64.9,29.60,West,267,2.0,2.0,60,0.00,BKN,,0.00,WeatherDisplay:10.37,2013-06-29 23:13:00,
2013-06-29 19:18:00,79.6,65.0,29.60,West,267,1.1,1.1,61,0.00,BKN,,0.00,WeatherDisplay:10.37,2013-06-29 23:18:00,
2013-06-29 19:24:00,79.0,64.4,29.60,West,267,6.0,6.0,61,0.00,BKN,,0.00,WeatherDisplay:10.37,2013-06-29 23:24:00,
2013-06-29 19:29:00,78.5,64.4,29.60,West,264,6.0,6.0,62,0.00,BKN,,0.00,WeatherDisplay:10.37,2013-06-29 23:29:00,
2013-06-29 19:34:00,78.2,64.1,29.60,West,268,4.0,4.0,62,0.00,BKN,,0.00,WeatherDisplay:10.37,2013-06-29 23:34:00,
2013-06-29 19:39:00,78.1,64.5,29.61,West,267,3.0,3.0,63,0.00,BKN,,0.00,WeatherDisplay:10.37,2013-06-29 23:39:00,
2013-06-29 19:44:00,77.8,64.2,29.61,West,267,3.5,3.5,63,0.00,BKN,,0.00,WeatherDisplay:10.37,2013-06-29 23:44:00,
2013-06-29 19:49:00,77.4,64.3,29.61,NE,48,11.5,11.5,64,0.00,BKN,,0.00,WeatherDisplay:10.37,2013-06-29 23:49:00,
2013-06-29 19:54:00,76.3,64.1,29.62,NE,55,5.8,5.8,66,0.00,BKN,,0.00,WeatherDisplay:10.37,2013-06-29 23:54:00,
2013-06-29 19:59:00,75.5,64.2,29.62,NE,53,3.5,3.5,68,0.00,BKN,,0.00,WeatherDisplay:10.37,2013-06-29 23:59:00,
2013-06-29 20:04:00,74.9,64.5,29.62,ENE,60,4.0,4.0,70,0.00,BKN,,0.00,WeatherDisplay:10.37,2013-06-30 00:04:00,
2013-06-29 20:09:00,74.6,64.6,29.62,ENE,60,3.5,3.5,71,0.00,BKN,,0.00,WeatherDisplay:10.37,2013-06-30 00:09:00,
2013-06-29 20:14:00,74.3,64.3,29.62,NE,51,6.9,6.9,71,0.00,BKN,,0.00,WeatherDisplay:10.37,2013-06-30 00:14:00,
2013-06-29 20:19:00,74.1,64.9,29.62,ENE,68,4.0,4.0,73,0.00,BKN,,0.00,WeatherDisplay:10.37,2013-06-30 00:19:00,
2013-06-29 20:24:00,73.8,65.0,29.62,ENE,58,7.0,7.0,74,0.00,BKN,,0.00,WeatherDisplay:10.37,2013-06-30 00:24:00,
2013-06-29 20:29:00,73.4,65.0,29.62,ENE,73,4.0,4.0,75,0.00,BKN,,0.00,WeatherDisplay:10.37,2013-06-30 00:29:00,
2013-06-29 20:34:00,73.1,65.1,29.62,ENE,62,2.0,2.0,76,0.00,BKN,,0.00,WeatherDisplay:10.37,2013-06-30 00:34:00,
2013-06-29 20:39:00,72.9,64.9,29.62,ENE,62,4.0,4.0,76,0.00,BKN,,0.00,WeatherDisplay:10.37,2013-06-30 00:39:00,
2013-06-29 20:44:00,72.5,64.9,29.63,ENE,63,4.0,4.0,77,0.00,BKN,,0.00,WeatherDisplay:10.37,2013-06-30 00:44:00,
2013-06-29 20:49:00,72.1,64.1,29.63,ENE,78,8.1,8.1,76,0.00,BKN,,0.00,WeatherDisplay:10.37,2013-06-30 00:49:00,
2013-06-29 20:54:00,71.3,63.3,29.64,NE,41,12.0,12.0,76,0.00,BKN,,0.00,WeatherDisplay:10.37,2013-06-30 00:54:00,
2013-06-29 20:59:00,70.7,63.5,29.65,ENE,58,2.3,2.3,78,0.00,BKN,,0.00,WeatherDisplay:10.37,2013-06-30 00:59:00,
2013-06-29 21:04:00,69.7,63.3,29.66,NNW,344,5.0,5.0,80,0.03, +RA,,0.03,WeatherDisplay:10.37,2013-06-30 01:04:00,
2013-06-29 21:09:00,68.0,61.9,29.66,NE,55,8.1,8.1,81,0.24, +RA,,0.29,WeatherDisplay:10.37,2013-06-30 01:09:00,
2013-06-29 21:14:00,66.4,61.1,29.66,ENE,60,7.0,7.0,83,0.52, +RA,,0.52,WeatherDisplay:10.37,2013-06-30 01:14:00,
2013-06-29 21:19:00,65.7,61.1,29.66,NE,47,6.9,6.9,85,0.61, +RA,,0.61,WeatherDisplay:10.37,2013-06-30 01:19:00,
2013-06-29 21:24:00,65.6,61.3,29.65,NE,47,10.4,10.4,86,0.62, +RA,,0.62,WeatherDisplay:10.37,2013-06-30 01:24:00,
2013-06-29 21:29:00,65.5,61.5,29.65,NE,43,6.0,6.0,87,0.62, +RA,,0.62,WeatherDisplay:10.37,2013-06-30 01:29:00,
2013-06-29 21:34:00,65.6,61.6,29.65,NE,52,4.0,4.0,87,0.62, +RA,,0.62,WeatherDisplay:10.37,2013-06-30 01:34:00,
2013-06-29 21:39:00,65.7,61.7,29.65,NE,52,2.3,2.3,87,0.62, +RA,,0.62,WeatherDisplay:10.37,2013-06-30 01:39:00,
2013-06-29 21:44:00,65.7,62.0,29.65,NE,52,0.0,0.0,88,0.62, +RA,,0.62,WeatherDisplay:10.37,2013-06-30 01:44:00,
2013-06-29 21:49:00,65.8,62.1,29.65,NE,52,2.3,0.0,88,0.62, +RA,,0.62,WeatherDisplay:10.37,2013-06-30 01:49:00,
2013-06-29 21:55:00,65.9,62.2,29.65,NE,52,0.0,0.0,88,0.62, +RA,,0.62,WeatherDisplay:10.37,2013-06-30 01:55:00,
2013-06-29 22:00:00,65.9,62.2,29.65,NE,52,0.0,0.0,88,0.62, +RA,,0.62,WeatherDisplay:10.37,2013-06-30 02:00:00,
2013-06-29 22:05:00,65.9,62.6,29.65,NE,52,0.0,0.0,89,0.59,SCT,,0.62,WeatherDisplay:10.37,2013-06-30 02:05:00,
2013-06-29 22:10:00,65.9,62.6,29.65,NE,52,0.0,0.0,89,0.31,SCT,,0.62,WeatherDisplay:10.37,2013-06-30 02:10:00,
2013-06-29 22:15:00,65.7,62.4,29.65,NE,53,0.0,0.0,89,0.10,SCT,,0.62,WeatherDisplay:10.37,2013-06-30 02:15:00,
2013-06-29 22:20:00,65.6,62.3,29.65,NE,52,0.0,0.0,89,0.01,SCT,,0.62,WeatherDisplay:10.37,2013-06-30 02:20:00,
2013-06-29 22:25:00,65.5,62.2,29.65,NE,53,0.0,2.0,89,0.00,SCT,,0.62,WeatherDisplay:10.37,2013-06-30 02:25:00,
2013-06-29 22:30:00,65.4,62.1,29.65,NE,53,0.0,0.0,89,0.00,SCT,,0.62,WeatherDisplay:10.37,2013-06-30 02:30:00,
2013-06-29 22:35:00,65.3,62.0,29.65,NE,53,0.0,0.0,89,0.00,SCT,,0.62,WeatherDisplay:10.37,2013-06-30 02:35:00,
2013-06-29 22:40:00,65.2,61.9,29.65,NE,52,0.0,0.0,89,0.00,SCT,,0.62,WeatherDisplay:10.37,2013-06-30 02:40:00,
2013-06-29 22:45:00,65.3,62.0,29.65,NE,53,0.0,0.0,89,0.00,SCT,,0.62,WeatherDisplay:10.37,2013-06-30 02:45:00,
2013-06-29 22:50:00,65.4,62.1,29.65,NE,53,0.0,0.0,89,0.00,SCT,,0.62,WeatherDisplay:10.37,2013-06-30 02:50:00,
2013-06-29 22:55:00,65.4,62.1,29.65,NE,53,0.0,0.0,89,0.00,SCT,,0.62,WeatherDisplay:10.37,2013-06-30 02:55:00,
2013-06-29 23:00:00,65.7,62.4,29.65,NE,52,0.0,0.0,89,0.00,SCT,,0.62,WeatherDisplay:10.37,2013-06-30 03:00:00,
2013-06-29 23:05:00,65.7,62.7,29.65,NE,52,0.0,0.0,90,0.00,CLR,,0.62,WeatherDisplay:10.37,2013-06-30 03:05:00,
2013-06-29 23:10:00,65.8,62.8,29.66,NE,53,0.0,0.0,90,0.00,CLR,,0.62,WeatherDisplay:10.37,2013-06-30 03:10:00,
2013-06-29 23:15:00,65.8,62.8,29.66,NE,53,0.0,0.0,90,0.00,CLR,,0.62,WeatherDisplay:10.37,2013-06-30 03:15:00,
2013-06-29 23:20:00,65.9,62.9,29.66,NE,52,0.0,0.0,90,0.00,CLR,,0.62,WeatherDisplay:10.37,2013-06-30 03:20:00,
2013-06-29 23:25:00,65.9,62.9,29.65,NE,53,0.0,0.0,90,0.00,CLR,,0.62,WeatherDisplay:10.37,2013-06-30 03:25:00,
2013-06-29 23:30:00,66.0,63.0,29.66,NE,53,1.1,1.1,90,0.00,CLR,,0.62,WeatherDisplay:10.37,2013-06-30 03:30:00,
2013-06-29 23:35:00,66.2,63.2,29.67,NE,56,3.0,3.0,90,0.00,CLR,,0.64,WeatherDisplay:10.37,2013-06-30 03:35:00,
2013-06-29 23:40:00,66.1,63.1,29.69,West,268,7.0,7.0,90,0.14,RA,,0.76,WeatherDisplay:10.37,2013-06-30 03:40:00,
2013-06-29 23:45:00,65.1,61.8,29.69,WSW,239,6.0,6.0,89,0.36,RA,,1.02,WeatherDisplay:10.37,2013-06-30 03:45:00,
2013-06-29 23:50:00,64.4,61.4,29.68,SSW,192,3.5,3.5,90,0.68,RA,,1.31,WeatherDisplay:10.37,2013-06-30 03:50:00,
2013-06-29 23:55:00,64.0,61.0,29.68,SSW,197,4.0,4.0,90,0.72,RA,,1.34,WeatherDisplay:10.37,2013-06-30 03:55:00,